La Grange Park, Illinois
Current Conditions -  °F | °C
As of 8:53 AM on Wednesday 22 Oct 2014 (Local Time) from KMDW Reporting Station
Few Clouds Few Clouds  
Wind Chill: 42°   Ceiling: Unl
Heat Index: 46°   Visibility: 10mi
Dew Point: 37°   Wind: 7mph
Humidity: 71%   Direction: 140°SE
Pressure: 30.36"   Gusts: NA
Location:  41.82°N, 87.87°W
Report Text: KMDW 221353Z 14006KT 10SM FEW031 08/03 A3036 RMK AO2 SLP284 T00780028
Loading
Personal Weather Stations






























Interactive Weather Map New forecast layout! Learn more

10-Day Weather Forecast

Advertisements
Track Severe Weather on mobile